sensor_id;sensor_type;location;lat;lon;timestamp;P1;durP1;ratioP1;P2;durP2;ratioP2
41167;SDS011;26906;45.658;9.272;2022-10-29T07:16:15;13.13;;;9.18;;
41167;SDS011;26906;45.658;9.272;2022-10-29T07:18:41;17.20;;;8.20;;
41167;SDS011;26906;45.658;9.272;2022-10-29T07:21:07;15.43;;;7.93;;
41167;SDS011;26906;45.658;9.272;2022-10-29T07:23:33;12.27;;;8.45;;
41167;SDS011;26906;45.658;9.272;2022-10-29T07:25:59;14.15;;;8.25;;
41167;SDS011;26906;45.658;9.272;2022-10-29T07:28:25;16.10;;;8.15;;
41167;SDS011;26906;45.658;9.272;2022-10-29T07:30:51;19.05;;;8.23;;
41167;SDS011;26906;45.658;9.272;2022-10-29T07:33:22;11.82;;;8.10;;
41167;SDS011;26906;45.658;9.272;2022-10-29T07:35:54;14.20;;;8.43;;
41167;SDS011;26906;45.658;9.272;2022-10-29T07:38:22;14.43;;;8.13;;
41167;SDS011;26906;45.658;9.272;2022-10-29T07:40:48;15.90;;;7.85;;
41167;SDS011;26906;45.658;9.272;2022-10-29T07:43:14;13.93;;;8.02;;
41167;SDS011;26906;45.658;9.272;2022-10-29T07:45:44;15.55;;;7.55;;
41167;SDS011;26906;45.658;9.272;2022-10-29T07:48:14;14.63;;;7.63;;
41167;SDS011;26906;45.658;9.272;2022-10-29T07:50:40;13.77;;;7.60;;
41167;SDS011;26906;45.658;9.272;2022-10-29T07:53:24;15.45;;;7.25;;
41167;SDS011;26906;45.658;9.272;2022-10-29T07:55:56;13.38;;;6.85;;
41167;SDS011;26906;45.658;9.272;2022-10-29T07:58:22;15.30;;;7.57;;
41167;SDS011;26906;45.658;9.272;2022-10-29T08:00:48;13.55;;;6.97;;
41167;SDS011;26906;45.658;9.272;2022-10-29T08:03:13;14.45;;;6.97;;
41167;SDS011;26906;45.658;9.272;2022-10-29T08:05:39;14.60;;;7.20;;
41167;SDS011;26906;45.658;9.272;2022-10-29T08:08:05;12.80;;;6.85;;
41167;SDS011;26906;45.658;9.272;2022-10-29T08:10:32;17.58;;;8.65;;
41167;SDS011;26906;45.658;9.272;2022-10-29T08:12:59;12.68;;;7.30;;
41167;SDS011;26906;45.658;9.272;2022-10-29T08:15:27;14.13;;;7.43;;
41167;SDS011;26906;45.658;9.272;2022-10-29T08:17:54;14.05;;;7.53;;
41167;SDS011;26906;45.658;9.272;2022-10-29T08:20:21;16.92;;;8.13;;
41167;SDS011;26906;45.658;9.272;2022-10-29T08:22:53;14.82;;;7.72;;
41167;SDS011;26906;45.658;9.272;2022-10-29T08:25:19;18.20;;;10.35;;
41167;SDS011;26906;45.658;9.272;2022-10-29T08:27:45;19.10;;;11.15;;
41167;SDS011;26906;45.658;9.272;2022-10-29T08:30:22;19.00;;;10.95;;
41167;SDS011;26906;45.658;9.272;2022-10-29T08:32:48;17.75;;;10.23;;
41167;SDS011;26906;45.658;9.272;2022-10-29T08:35:13;17.70;;;11.57;;
41167;SDS011;26906;45.658;9.272;2022-10-29T08:37:43;22.67;;;11.18;;
41167;SDS011;26906;45.658;9.272;2022-10-29T08:40:18;17.40;;;10.20;;
41167;SDS011;26906;45.658;9.272;2022-10-29T08:45:59;21.42;;;12.00;;
41167;SDS011;26906;45.658;9.272;2022-10-29T08:48:36;21.98;;;13.10;;
41167;SDS011;26906;45.658;9.272;2022-10-29T08:51:19;23.85;;;13.05;;
41167;SDS011;26906;45.658;9.272;2022-10-29T08:53:50;21.35;;;12.10;;
41167;SDS011;26906;45.658;9.272;2022-10-29T08:56:18;21.00;;;11.57;;
41167;SDS011;26906;45.658;9.272;2022-10-29T08:58:51;25.80;;;11.80;;
41167;SDS011;26906;45.658;9.272;2022-10-29T09:01:27;17.40;;;11.18;;
41167;SDS011;26906;45.658;9.272;2022-10-29T09:03:54;25.65;;;12.27;;
41167;SDS011;26906;45.658;9.272;2022-10-29T09:09:05;23.80;;;11.70;;
41167;SDS011;26906;45.658;9.272;2022-10-29T09:15:05;19.30;;;11.73;;
41167;SDS011;26906;45.658;9.272;2022-10-29T09:21:41;22.02;;;12.15;;
41167;SDS011;26906;45.658;9.272;2022-10-29T09:26:37;16.63;;;10.07;;
41167;SDS011;26906;45.658;9.272;2022-10-29T09:29:22;22.73;;;12.57;;
41167;SDS011;26906;45.658;9.272;2022-10-29T09:35:21;19.38;;;11.30;;
41167;SDS011;26906;45.658;9.272;2022-10-29T09:38:00;23.48;;;11.68;;
41167;SDS011;26906;45.658;9.272;2022-10-29T09:40:37;19.63;;;11.55;;
41167;SDS011;26906;45.658;9.272;2022-10-29T09:43:05;16.27;;;9.43;;
41167;SDS011;26906;45.658;9.272;2022-10-29T09:53:46;20.83;;;10.40;;
41167;SDS011;26906;45.658;9.272;2022-10-29T09:56:13;18.50;;;10.30;;
41167;SDS011;26906;45.658;9.272;2022-10-29T09:58:40;18.40;;;11.02;;
41167;SDS011;26906;45.658;9.272;2022-10-29T10:01:09;28.13;;;10.32;;
41167;SDS011;26906;45.658;9.272;2022-10-29T10:03:36;18.13;;;10.02;;
41167;SDS011;26906;45.658;9.272;2022-10-29T10:06:10;16.98;;;8.93;;
41167;SDS011;26906;45.658;9.272;2022-10-29T10:11:38;20.33;;;10.35;;
41167;SDS011;26906;45.658;9.272;2022-10-29T10:14:13;18.13;;;9.80;;
41167;SDS011;26906;45.658;9.272;2022-10-29T10:16:42;20.88;;;9.52;;
41167;SDS011;26906;45.658;9.272;2022-10-29T10:19:28;20.85;;;10.85;;
41167;SDS011;26906;45.658;9.272;2022-10-29T10:22:00;34.33;;;10.43;;
41167;SDS011;26906;45.658;9.272;2022-10-29T10:26:54;21.65;;;10.02;;
41167;SDS011;26906;45.658;9.272;2022-10-29T10:29:21;18.92;;;9.98;;
41167;SDS011;26906;45.658;9.272;2022-10-29T10:34:23;14.43;;;8.43;;
41167;SDS011;26906;45.658;9.272;2022-10-29T10:36:50;18.48;;;9.38;;
41167;SDS011;26906;45.658;9.272;2022-10-29T10:39:24;16.60;;;8.63;;
41167;SDS011;26906;45.658;9.272;2022-10-29T10:42:25;19.05;;;9.88;;
41167;SDS011;26906;45.658;9.272;2022-10-29T10:47:46;17.52;;;10.10;;
41167;SDS011;26906;45.658;9.272;2022-10-29T10:50:20;18.63;;;9.75;;
41167;SDS011;26906;45.658;9.272;2022-10-29T10:52:58;20.48;;;10.02;;
41167;SDS011;26906;45.658;9.272;2022-10-29T10:55:30;17.27;;;9.65;;
41167;SDS011;26906;45.658;9.272;2022-10-29T10:58:15;17.30;;;8.98;;
41167;SDS011;26906;45.658;9.272;2022-10-29T11:00:53;18.13;;;10.15;;
41167;SDS011;26906;45.658;9.272;2022-10-29T11:04:03;18.48;;;9.23;;
41167;SDS011;26906;45.658;9.272;2022-10-29T11:06:33;15.27;;;9.15;;
41167;SDS011;26906;45.658;9.272;2022-10-29T11:09:05;17.25;;;9.25;;
41167;SDS011;26906;45.658;9.272;2022-10-29T11:14:13;17.85;;;9.13;;
41167;SDS011;26906;45.658;9.272;2022-10-29T11:16:47;15.93;;;8.55;;
41167;SDS011;26906;45.658;9.272;2022-10-29T11:19:27;21.23;;;8.43;;
41167;SDS011;26906;45.658;9.272;2022-10-29T11:22:20;21.08;;;7.80;;
41167;SDS011;26906;45.658;9.272;2022-10-29T11:30:11;23.67;;;8.95;;
41167;SDS011;26906;45.658;9.272;2022-10-29T11:35:34;15.30;;;8.73;;
41167;SDS011;26906;45.658;9.272;2022-10-29T11:38:47;12.55;;;8.02;;
41167;SDS011;26906;45.658;9.272;2022-10-29T11:43:20;15.45;;;7.32;;
41167;SDS011;26906;45.658;9.272;2022-10-29T11:52:10;17.73;;;7.13;;
41167;SDS011;26906;45.658;9.272;2022-10-29T11:55:14;16.35;;;6.93;;
41167;SDS011;26906;45.658;9.272;2022-10-29T11:58:02;16.23;;;7.50;;
41167;SDS011;26906;45.658;9.272;2022-10-29T12:00:46;11.50;;;6.95;;
41167;SDS011;26906;45.658;9.272;2022-10-29T12:06:22;14.15;;;7.35;;
41167;SDS011;26906;45.658;9.272;2022-10-29T12:12:03;13.15;;;5.95;;
41167;SDS011;26906;45.658;9.272;2022-10-29T12:17:35;11.27;;;7.13;;
41167;SDS011;26906;45.658;9.272;2022-10-29T12:20:26;12.98;;;6.22;;
41167;SDS011;26906;45.658;9.272;2022-10-29T12:29:04;14.63;;;6.28;;
41167;SDS011;26906;45.658;9.272;2022-10-29T12:39:47;12.98;;;7.18;;
41167;SDS011;26906;45.658;9.272;2022-10-29T12:42:26;14.35;;;6.55;;
41167;SDS011;26906;45.658;9.272;2022-10-29T12:45:01;10.88;;;5.43;;
41167;SDS011;26906;45.658;9.272;2022-10-29T12:47:37;9.25;;;4.40;;
41167;SDS011;26906;45.658;9.272;2022-10-29T12:52:51;16.75;;;6.07;;
41167;SDS011;26906;45.658;9.272;2022-10-29T12:55:25;11.60;;;5.43;;
41167;SDS011;26906;45.658;9.272;2022-10-29T12:57:52;10.95;;;5.20;;
41167;SDS011;26906;45.658;9.272;2022-10-29T13:02:52;12.43;;;5.32;;
41167;SDS011;26906;45.658;9.272;2022-10-29T13:05:39;10.40;;;5.15;;
41167;SDS011;26906;45.658;9.272;2022-10-29T13:08:10;12.85;;;4.55;;
41167;SDS011;26906;45.658;9.272;2022-10-29T13:10:48;12.50;;;4.88;;
41167;SDS011;26906;45.658;9.272;2022-10-29T13:13:32;10.15;;;4.00;;
41167;SDS011;26906;45.658;9.272;2022-10-29T13:16:05;15.35;;;4.53;;
41167;SDS011;26906;45.658;9.272;2022-10-29T13:19:21;10.55;;;4.30;;
41167;SDS011;26906;45.658;9.272;2022-10-29T13:22:33;12.52;;;4.93;;
41167;SDS011;26906;45.658;9.272;2022-10-29T13:24:26;11.02;;;4.60;;
41167;SDS011;26906;45.658;9.272;2022-10-29T13:26:58;14.55;;;4.55;;
41167;SDS011;26906;45.658;9.272;2022-10-29T13:29:39;11.50;;;4.32;;
41167;SDS011;26906;45.658;9.272;2022-10-29T13:32:32;10.02;;;4.47;;
41167;SDS011;26906;45.658;9.272;2022-10-29T13:35:00;8.35;;;4.40;;
41167;SDS011;26906;45.658;9.272;2022-10-29T13:37:34;9.18;;;4.05;;
41167;SDS011;26906;45.658;9.272;2022-10-29T13:42:58;11.13;;;3.90;;
41167;SDS011;26906;45.658;9.272;2022-10-29T13:46:12;15.45;;;5.13;;
41167;SDS011;26906;45.658;9.272;2022-10-29T13:48:45;9.38;;;4.40;;
41167;SDS011;26906;45.658;9.272;2022-10-29T13:51:15;7.45;;;4.18;;
41167;SDS011;26906;45.658;9.272;2022-10-29T13:53:56;8.07;;;4.82;;
41167;SDS011;26906;45.658;9.272;2022-10-29T13:56:45;9.70;;;4.47;;
41167;SDS011;26906;45.658;9.272;2022-10-29T13:59:45;10.80;;;5.10;;
41167;SDS011;26906;45.658;9.272;2022-10-29T14:05:02;10.07;;;4.97;;
41167;SDS011;26906;45.658;9.272;2022-10-29T14:07:40;13.65;;;5.32;;
41167;SDS011;26906;45.658;9.272;2022-10-29T14:18:40;12.38;;;4.32;;
41167;SDS011;26906;45.658;9.272;2022-10-29T14:23:39;14.02;;;3.90;;
41167;SDS011;26906;45.658;9.272;2022-10-29T14:26:18;11.32;;;3.75;;
41167;SDS011;26906;45.658;9.272;2022-10-29T14:28:44;11.57;;;3.55;;
41167;SDS011;26906;45.658;9.272;2022-10-29T14:31:13;9.68;;;3.67;;
41167;SDS011;26906;45.658;9.272;2022-10-29T14:33:41;8.88;;;3.45;;
41167;SDS011;26906;45.658;9.272;2022-10-29T14:41:28;15.85;;;3.28;;
41167;SDS011;26906;45.658;9.272;2022-10-29T14:44:05;11.23;;;3.50;;
41167;SDS011;26906;45.658;9.272;2022-10-29T14:49:10;9.88;;;3.15;;
41167;SDS011;26906;45.658;9.272;2022-10-29T14:51:48;13.25;;;2.92;;
41167;SDS011;26906;45.658;9.272;2022-10-29T14:54:26;10.73;;;3.22;;
41167;SDS011;26906;45.658;9.272;2022-10-29T14:57:11;9.75;;;3.22;;
41167;SDS011;26906;45.658;9.272;2022-10-29T14:59:47;14.50;;;4.13;;
41167;SDS011;26906;45.658;9.272;2022-10-29T15:02:16;8.93;;;3.83;;
41167;SDS011;26906;45.658;9.272;2022-10-29T15:04:46;12.52;;;3.33;;
41167;SDS011;26906;45.658;9.272;2022-10-29T15:07:15;11.48;;;3.13;;
41167;SDS011;26906;45.658;9.272;2022-10-29T15:09:44;12.63;;;2.85;;
41167;SDS011;26906;45.658;9.272;2022-10-29T15:14:51;8.30;;;2.95;;
41167;SDS011;26906;45.658;9.272;2022-10-29T15:17:28;11.10;;;3.03;;
41167;SDS011;26906;45.658;9.272;2022-10-29T15:20:00;9.93;;;3.22;;
41167;SDS011;26906;45.658;9.272;2022-10-29T15:22:32;10.52;;;3.10;;
41167;SDS011;26906;45.658;9.272;2022-10-29T15:25:02;12.85;;;3.08;;
41167;SDS011;26906;45.658;9.272;2022-10-29T15:27:29;9.00;;;2.80;;
41167;SDS011;26906;45.658;9.272;2022-10-29T15:29:55;8.90;;;2.75;;
41167;SDS011;26906;45.658;9.272;2022-10-29T15:32:21;9.90;;;3.13;;
41167;SDS011;26906;45.658;9.272;2022-10-29T15:34:48;10.38;;;3.25;;
41167;SDS011;26906;45.658;9.272;2022-10-29T15:40:05;12.32;;;3.38;;
41167;SDS011;26906;45.658;9.272;2022-10-29T15:42:33;11.00;;;2.88;;
41167;SDS011;26906;45.658;9.272;2022-10-29T15:47:39;9.18;;;2.70;;
41167;SDS011;26906;45.658;9.272;2022-10-29T15:50:17;8.70;;;2.97;;
41167;SDS011;26906;45.658;9.272;2022-10-29T15:55:31;11.18;;;3.15;;
41167;SDS011;26906;45.658;9.272;2022-10-29T15:58:00;11.40;;;2.95;;
41167;SDS011;26906;45.658;9.272;2022-10-29T16:00:36;13.65;;;3.28;;
41167;SDS011;26906;45.658;9.272;2022-10-29T16:03:11;7.30;;;2.70;;
41167;SDS011;26906;45.658;9.272;2022-10-29T16:05:41;7.85;;;3.10;;
41167;SDS011;26906;45.658;9.272;2022-10-29T16:08:19;18.23;;;3.58;;
41167;SDS011;26906;45.658;9.272;2022-10-29T16:11:05;8.20;;;2.85;;
41167;SDS011;26906;45.658;9.272;2022-10-29T16:13:35;10.95;;;2.97;;
41167;SDS011;26906;45.658;9.272;2022-10-29T16:16:01;7.15;;;2.80;;
41167;SDS011;26906;45.658;9.272;2022-10-29T16:18:27;14.90;;;3.20;;
41167;SDS011;26906;45.658;9.272;2022-10-29T16:20:56;10.70;;;3.05;;
41167;SDS011;26906;45.658;9.272;2022-10-29T16:23:28;17.40;;;2.95;;
41167;SDS011;26906;45.658;9.272;2022-10-29T16:25:54;6.63;;;3.25;;
41167;SDS011;26906;45.658;9.272;2022-10-29T16:28:20;9.50;;;3.28;;
41167;SDS011;26906;45.658;9.272;2022-10-29T16:30:48;10.70;;;3.20;;
41167;SDS011;26906;45.658;9.272;2022-10-29T16:33:18;8.60;;;3.45;;
41167;SDS011;26906;45.658;9.272;2022-10-29T16:35:45;7.68;;;2.65;;
41167;SDS011;26906;45.658;9.272;2022-10-29T16:38:11;10.57;;;3.17;;
41167;SDS011;26906;45.658;9.272;2022-10-29T16:40:36;13.98;;;3.53;;
41167;SDS011;26906;45.658;9.272;2022-10-29T16:43:03;11.45;;;3.47;;
41167;SDS011;26906;45.658;9.272;2022-10-29T16:45:29;11.50;;;3.17;;
41167;SDS011;26906;45.658;9.272;2022-10-29T16:47:56;8.40;;;3.47;;
41167;SDS011;26906;45.658;9.272;2022-10-29T16:50:32;8.25;;;3.60;;
41167;SDS011;26906;45.658;9.272;2022-10-29T16:52:59;13.82;;;3.97;;
41167;SDS011;26906;45.658;9.272;2022-10-29T16:55:35;14.02;;;4.15;;
41167;SDS011;26906;45.658;9.272;2022-10-29T16:58:03;11.77;;;3.90;;
41167;SDS011;26906;45.658;9.272;2022-10-29T17:00:31;11.68;;;4.97;;
41167;SDS011;26906;45.658;9.272;2022-10-29T17:02:58;5.88;;;3.63;;
41167;SDS011;26906;45.658;9.272;2022-10-29T17:05:24;16.20;;;7.05;;
41167;SDS011;26906;45.658;9.272;2022-10-29T17:07:52;12.10;;;4.90;;
41167;SDS011;26906;45.658;9.272;2022-10-29T17:10:18;10.57;;;4.22;;
41167;SDS011;26906;45.658;9.272;2022-10-29T17:12:47;11.02;;;4.40;;
41167;SDS011;26906;45.658;9.272;2022-10-29T17:15:14;13.55;;;4.60;;
41167;SDS011;26906;45.658;9.272;2022-10-29T17:17:40;14.10;;;5.50;;
41167;SDS011;26906;45.658;9.272;2022-10-29T17:20:09;16.40;;;5.22;;
41167;SDS011;26906;45.658;9.272;2022-10-29T17:22:37;8.07;;;4.70;;
41167;SDS011;26906;45.658;9.272;2022-10-29T17:25:03;10.73;;;4.55;;
41167;SDS011;26906;45.658;9.272;2022-10-29T17:27:29;14.25;;;6.68;;
41167;SDS011;26906;45.658;9.272;2022-10-29T17:29:55;7.95;;;5.00;;
41167;SDS011;26906;45.658;9.272;2022-10-29T17:32:20;9.23;;;4.90;;
41167;SDS011;26906;45.658;9.272;2022-10-29T17:34:46;9.90;;;5.50;;
41167;SDS011;26906;45.658;9.272;2022-10-29T17:37:12;9.07;;;4.97;;
41167;SDS011;26906;45.658;9.272;2022-10-29T17:39:39;12.52;;;4.80;;
41167;SDS011;26906;45.658;9.272;2022-10-29T17:42:05;15.85;;;5.75;;
41167;SDS011;26906;45.658;9.272;2022-10-29T17:44:30;10.02;;;5.70;;
41167;SDS011;26906;45.658;9.272;2022-10-29T17:46:58;11.80;;;5.07;;
41167;SDS011;26906;45.658;9.272;2022-10-29T17:49:24;15.82;;;5.80;;
41167;SDS011;26906;45.658;9.272;2022-10-29T17:51:50;18.90;;;5.60;;
41167;SDS011;26906;45.658;9.272;2022-10-29T17:54:16;12.70;;;4.90;;
41167;SDS011;26906;45.658;9.272;2022-10-29T17:56:44;11.10;;;5.43;;
41167;SDS011;26906;45.658;9.272;2022-10-29T17:59:09;9.10;;;4.72;;
41167;SDS011;26906;45.658;9.272;2022-10-29T18:01:35;9.35;;;5.15;;
41167;SDS011;26906;45.658;9.272;2022-10-29T18:04:01;11.65;;;5.15;;
41167;SDS011;26906;45.658;9.272;2022-10-29T18:06:29;14.20;;;5.10;;
41167;SDS011;26906;45.658;9.272;2022-10-29T18:08:54;10.45;;;4.78;;
41167;SDS011;26906;45.658;9.272;2022-10-29T18:11:21;12.85;;;5.20;;
41167;SDS011;26906;45.658;9.272;2022-10-29T18:13:48;11.63;;;5.82;;
41167;SDS011;26906;45.658;9.272;2022-10-29T18:16:16;11.98;;;5.72;;
41167;SDS011;26906;45.658;9.272;2022-10-29T18:18:43;14.35;;;5.55;;
41167;SDS011;26906;45.658;9.272;2022-10-29T18:21:11;16.70;;;5.85;;
41167;SDS011;26906;45.658;9.272;2022-10-29T18:23:39;15.27;;;5.38;;
41167;SDS011;26906;45.658;9.272;2022-10-29T18:26:27;13.93;;;5.78;;
41167;SDS011;26906;45.658;9.272;2022-10-29T18:28:55;11.50;;;5.82;;
41167;SDS011;26906;45.658;9.272;2022-10-29T18:31:24;16.38;;;5.93;;
41167;SDS011;26906;45.658;9.272;2022-10-29T18:33:54;13.57;;;5.88;;
41167;SDS011;26906;45.658;9.272;2022-10-29T18:36:21;13.90;;;5.32;;
41167;SDS011;26906;45.658;9.272;2022-10-29T18:38:54;9.60;;;5.10;;
41167;SDS011;26906;45.658;9.272;2022-10-29T18:41:20;13.23;;;5.10;;
41167;SDS011;26906;45.658;9.272;2022-10-29T18:43:47;14.73;;;5.88;;
41167;SDS011;26906;45.658;9.272;2022-10-29T18:46:14;10.35;;;5.53;;
41167;SDS011;26906;45.658;9.272;2022-10-29T18:48:44;18.85;;;6.13;;
41167;SDS011;26906;45.658;9.272;2022-10-29T18:51:28;15.73;;;5.40;;
41167;SDS011;26906;45.658;9.272;2022-10-29T18:53:56;9.70;;;5.78;;
41167;SDS011;26906;45.658;9.272;2022-10-29T18:56:23;11.98;;;5.40;;
41167;SDS011;26906;45.658;9.272;2022-10-29T18:58:53;15.70;;;5.72;;
41167;SDS011;26906;45.658;9.272;2022-10-29T19:01:22;13.88;;;5.25;;
41167;SDS011;26906;45.658;9.272;2022-10-29T19:03:50;11.13;;;5.88;;
41167;SDS011;26906;45.658;9.272;2022-10-29T19:06:19;12.48;;;5.40;;
41167;SDS011;26906;45.658;9.272;2022-10-29T19:08:47;13.05;;;5.63;;
41167;SDS011;26906;45.658;9.272;2022-10-29T19:11:15;11.00;;;6.55;;
41167;SDS011;26906;45.658;9.272;2022-10-29T19:13:48;12.43;;;5.55;;
41167;SDS011;26906;45.658;9.272;2022-10-29T19:16:15;19.58;;;6.00;;
41167;SDS011;26906;45.658;9.272;2022-10-29T19:18:45;11.45;;;5.40;;
41167;SDS011;26906;45.658;9.272;2022-10-29T19:21:13;15.25;;;6.10;;
41167;SDS011;26906;45.658;9.272;2022-10-29T19:23:42;15.68;;;6.35;;
41167;SDS011;26906;45.658;9.272;2022-10-29T19:26:11;11.15;;;6.00;;
41167;SDS011;26906;45.658;9.272;2022-10-29T19:28:39;9.93;;;5.70;;
41167;SDS011;26906;45.658;9.272;2022-10-29T19:31:06;10.13;;;5.40;;
41167;SDS011;26906;45.658;9.272;2022-10-29T19:33:33;13.32;;;6.75;;
41167;SDS011;26906;45.658;9.272;2022-10-29T19:36:00;12.38;;;6.43;;
41167;SDS011;26906;45.658;9.272;2022-10-29T19:38:26;13.70;;;7.13;;
41167;SDS011;26906;45.658;9.272;2022-10-29T19:40:52;12.90;;;6.35;;
41167;SDS011;26906;45.658;9.272;2022-10-29T19:43:20;8.85;;;6.50;;
41167;SDS011;26906;45.658;9.272;2022-10-29T19:45:45;13.20;;;6.30;;
41167;SDS011;26906;45.658;9.272;2022-10-29T19:48:11;13.63;;;6.40;;
41167;SDS011;26906;45.658;9.272;2022-10-29T19:50:40;13.43;;;6.35;;
41167;SDS011;26906;45.658;9.272;2022-10-29T19:53:06;12.93;;;6.95;;
41167;SDS011;26906;45.658;9.272;2022-10-29T19:55:32;11.85;;;6.60;;
41167;SDS011;26906;45.658;9.272;2022-10-29T19:57:57;11.35;;;6.30;;
41167;SDS011;26906;45.658;9.272;2022-10-29T20:00:23;15.63;;;7.38;;
41167;SDS011;26906;45.658;9.272;2022-10-29T20:02:51;11.98;;;6.50;;
41167;SDS011;26906;45.658;9.272;2022-10-29T20:05:18;13.13;;;6.93;;
41167;SDS011;26906;45.658;9.272;2022-10-29T20:07:44;14.40;;;6.85;;
41167;SDS011;26906;45.658;9.272;2022-10-29T20:10:10;18.33;;;7.03;;
41167;SDS011;26906;45.658;9.272;2022-10-29T20:12:36;12.95;;;6.75;;
41167;SDS011;26906;45.658;9.272;2022-10-29T20:15:02;13.05;;;7.10;;
41167;SDS011;26906;45.658;9.272;2022-10-29T20:17:31;17.58;;;8.02;;
41167;SDS011;26906;45.658;9.272;2022-10-29T20:19:57;14.73;;;7.18;;
41167;SDS011;26906;45.658;9.272;2022-10-29T20:22:22;13.23;;;7.22;;
41167;SDS011;26906;45.658;9.272;2022-10-29T20:24:48;14.88;;;7.65;;
41167;SDS011;26906;45.658;9.272;2022-10-29T20:27:14;10.45;;;7.20;;
41167;SDS011;26906;45.658;9.272;2022-10-29T20:29:40;16.00;;;7.13;;
41167;SDS011;26906;45.658;9.272;2022-10-29T20:32:05;16.98;;;8.02;;
41167;SDS011;26906;45.658;9.272;2022-10-29T20:34:31;14.73;;;6.88;;
41167;SDS011;26906;45.658;9.272;2022-10-29T20:36:56;12.35;;;7.18;;
41167;SDS011;26906;45.658;9.272;2022-10-29T20:39:22;14.65;;;7.82;;
41167;SDS011;26906;45.658;9.272;2022-10-29T20:41:48;14.38;;;8.15;;
